createdAt,value
2022-10-02T00:01:10.914Z,64.40
2022-10-02T00:03:42.871Z,64.60
2022-10-02T00:06:17.279Z,64.50
2022-10-02T00:08:46.128Z,64.50
2022-10-02T00:11:20.304Z,64.40
2022-10-02T00:13:52.768Z,64.30
2022-10-02T00:16:34.529Z,65.00
2022-10-02T00:19:03.067Z,64.70
2022-10-02T00:21:40.989Z,63.90
2022-10-02T00:24:14.543Z,64.00
2022-10-02T00:26:47.714Z,64.30
2022-10-02T00:29:29.181Z,64.30
2022-10-02T00:32:07.037Z,64.30
2022-10-02T00:34:41.204Z,64.30
2022-10-02T00:37:22.338Z,64.30
2022-10-02T00:39:58.582Z,64.40
2022-10-02T00:43:03.710Z,64.50
2022-10-02T00:45:55.263Z,65.10
2022-10-02T00:48:45.515Z,64.10
2022-10-02T00:51:29.248Z,64.10
2022-10-02T00:54:06.588Z,64.10
2022-10-02T00:56:42.495Z,64.20
2022-10-02T00:59:43.116Z,64.30
2022-10-02T01:02:14.870Z,64.30
2022-10-02T01:04:43.411Z,64.40
2022-10-02T01:07:13.910Z,64.30
2022-10-02T01:09:42.809Z,64.10
2022-10-02T01:12:10.961Z,64.10
2022-10-02T01:14:40.846Z,64.10
2022-10-02T01:17:22.660Z,63.90
2022-10-02T01:19:51.101Z,64.00
2022-10-02T01:22:24.936Z,64.10
2022-10-02T01:24:55.437Z,63.90
2022-10-02T01:27:24.152Z,63.90
2022-10-02T01:29:57.028Z,63.80
2022-10-02T01:32:26.371Z,63.90
2022-10-02T01:34:55.152Z,63.90
2022-10-02T01:37:26.945Z,63.90
2022-10-02T01:39:59.925Z,63.90
2022-10-02T01:42:27.700Z,63.90
2022-10-02T01:44:55.492Z,63.90
2022-10-02T01:47:30.119Z,63.90
2022-10-02T01:50:08.341Z,64.30
2022-10-02T01:52:47.092Z,64.20
2022-10-02T01:55:30.812Z,64.00
2022-10-02T01:58:10.969Z,64.00
2022-10-02T02:00:49.914Z,64.00
2022-10-02T02:03:23.105Z,63.90
2022-10-02T02:05:57.100Z,64.00
2022-10-02T02:08:32.830Z,64.30
2022-10-02T02:11:10.793Z,64.00
2022-10-02T02:13:44.783Z,64.10
2022-10-02T02:16:22.748Z,64.00
2022-10-02T02:18:55.057Z,63.90
2022-10-02T02:21:27.229Z,64.00
2022-10-02T02:23:56.947Z,64.00
2022-10-02T02:26:28.836Z,63.90
2022-10-02T02:29:01.983Z,64.00
2022-10-02T02:31:37.201Z,63.90
2022-10-02T02:34:10.644Z,64.00
2022-10-02T02:36:44.102Z,64.00
2022-10-02T02:39:14.987Z,63.90
2022-10-02T02:41:48.445Z,63.90
2022-10-02T02:44:22.654Z,63.90
2022-10-02T02:47:06.345Z,63.80
2022-10-02T02:49:47.883Z,63.80
2022-10-02T02:52:19.959Z,63.80
2022-10-02T02:54:53.965Z,63.80
2022-10-02T02:57:29.562Z,63.90
2022-10-02T03:00:02.128Z,63.90
2022-10-02T03:02:30.035Z,63.80
2022-10-02T03:04:57.838Z,63.70
2022-10-02T03:07:25.890Z,63.90
2022-10-02T03:10:02.998Z,63.90
2022-10-02T03:12:49.548Z,64.00
2022-10-02T03:15:39.035Z,63.80
2022-10-02T03:18:30.463Z,63.90
2022-10-02T03:21:09.002Z,63.80
2022-10-02T03:23:48.328Z,63.80
2022-10-02T03:26:20.818Z,63.60
2022-10-02T03:28:56.522Z,63.50
2022-10-02T03:31:28.391Z,63.40
2022-10-02T03:33:58.253Z,63.30
2022-10-02T03:36:26.470Z,63.50
2022-10-02T03:39:23.259Z,63.60
2022-10-02T03:41:45.940Z,63.50
2022-10-02T03:44:15.062Z,63.30
2022-10-02T03:46:42.886Z,63.30
2022-10-02T03:49:10.709Z,63.50
2022-10-02T03:51:38.440Z,63.50
2022-10-02T03:54:13.410Z,63.60
2022-10-02T03:56:45.424Z,63.80
2022-10-02T03:59:20.795Z,63.70
2022-10-02T04:01:53.408Z,64.00
2022-10-02T04:04:27.722Z,64.00
2022-10-02T04:07:01.350Z,64.00
2022-10-02T04:09:35.596Z,63.80
2022-10-02T04:12:10.142Z,63.90
2022-10-02T04:14:44.469Z,63.90
2022-10-02T04:17:16.757Z,64.00
2022-10-02T04:19:49.032Z,64.00
2022-10-02T04:22:32.456Z,63.80
2022-10-02T04:25:04.976Z,63.80
2022-10-02T04:27:37.838Z,63.90
2022-10-02T04:30:10.219Z,64.00
2022-10-02T04:32:38.559Z,64.00
2022-10-02T04:35:14.348Z,64.20
2022-10-02T04:38:05.424Z,64.00
2022-10-02T04:41:01.601Z,64.10
2022-10-02T04:43:44.924Z,64.00
2022-10-02T04:46:27.444Z,64.20
2022-10-02T04:49:21.427Z,64.20
2022-10-02T04:52:10.271Z,64.20
2022-10-02T04:55:17.957Z,64.10
2022-10-02T04:58:21.983Z,64.00
2022-10-02T05:00:59.502Z,63.90
2022-10-02T05:03:45.496Z,63.70
2022-10-02T05:06:31.573Z,63.90
2022-10-02T05:09:07.668Z,63.90
2022-10-02T05:11:53.740Z,63.80
2022-10-02T05:14:48.051Z,63.80
2022-10-02T05:17:33.813Z,63.80
2022-10-02T05:20:21.581Z,63.80
2022-10-02T05:23:10.986Z,63.60
2022-10-02T05:25:56.482Z,63.60
2022-10-02T05:28:42.198Z,63.50
2022-10-02T05:31:20.387Z,63.70
2022-10-02T05:34:04.740Z,63.60
2022-10-02T05:37:06.615Z,63.60
2022-10-02T05:39:36.597Z,63.60
2022-10-02T05:42:12.275Z,63.50
2022-10-02T05:44:43.795Z,63.50
2022-10-02T05:47:16.369Z,63.40
2022-10-02T05:49:49.511Z,63.30
2022-10-02T05:52:22.216Z,63.60
2022-10-02T05:54:55.389Z,63.60
2022-10-02T05:57:31.727Z,63.60
2022-10-02T06:00:11.088Z,63.60
2022-10-02T06:02:46.931Z,63.60
2022-10-02T06:05:20.043Z,63.40
2022-10-02T06:07:53.759Z,63.50
2022-10-02T06:10:28.771Z,63.40
2022-10-02T06:13:03.083Z,63.50
2022-10-02T06:15:35.705Z,63.40
2022-10-02T06:18:08.115Z,63.40
2022-10-02T06:20:40.798Z,63.30
2022-10-02T06:23:14.600Z,63.30
2022-10-02T06:25:46.793Z,63.30
2022-10-02T06:28:20.457Z,63.20
2022-10-02T06:30:51.991Z,63.20
2022-10-02T06:33:23.526Z,63.10
2022-10-02T06:36:08.125Z,63.30
2022-10-02T06:38:52.633Z,63.30
2022-10-02T06:41:29.597Z,63.30
2022-10-02T06:44:13.730Z,63.30
2022-10-02T06:46:53.080Z,63.10
2022-10-02T06:49:30.285Z,63.10
2022-10-02T06:52:10.398Z,63.10
2022-10-02T06:54:54.935Z,63.10
2022-10-02T06:57:36.122Z,63.10
2022-10-02T07:00:11.919Z,63.00
2022-10-02T07:03:06.563Z,63.10
2022-10-02T07:05:54.207Z,63.10
2022-10-02T07:08:31.007Z,63.00
2022-10-02T07:11:10.841Z,63.20
2022-10-02T07:13:49.723Z,63.10
2022-10-02T07:16:39.800Z,63.20
2022-10-02T07:19:21.838Z,63.20
2022-10-02T07:22:11.063Z,63.10
2022-10-02T07:25:05.264Z,63.00
2022-10-02T07:27:42.510Z,62.90
2022-10-02T07:30:12.565Z,63.10
2022-10-02T07:32:48.444Z,63.30
2022-10-02T07:35:43.002Z,63.10
2022-10-02T07:38:44.947Z,62.90
2022-10-02T07:41:28.922Z,63.20
2022-10-02T07:44:07.243Z,63.10
2022-10-02T07:46:45.884Z,63.00
2022-10-02T07:49:48.856Z,63.00
2022-10-02T07:52:23.201Z,62.80
2022-10-02T07:55:24.928Z,63.00
2022-10-02T07:58:01.341Z,63.10
2022-10-02T08:00:33.912Z,63.10
2022-10-02T08:03:03.649Z,62.90
2022-10-02T08:05:35.800Z,63.00
2022-10-02T08:08:11.996Z,62.90
2022-10-02T08:10:44.618Z,62.90
2022-10-02T08:13:20.428Z,62.80
2022-10-02T08:15:53.439Z,62.90
2022-10-02T08:18:34.630Z,62.90
2022-10-02T08:21:05.361Z,62.80
2022-10-02T08:23:38.623Z,62.90
2022-10-02T08:26:13.451Z,62.90
2022-10-02T08:28:45.988Z,63.00
2022-10-02T08:31:15.965Z,63.10
2022-10-02T08:33:43.966Z,63.00
2022-10-02T08:36:45.745Z,63.00
2022-10-02T08:39:50.411Z,62.80
2022-10-02T08:42:50.857Z,62.70
2022-10-02T08:45:51.265Z,62.80
2022-10-02T08:48:49.562Z,62.80
2022-10-02T08:51:50.608Z,62.90
2022-10-02T08:54:50.432Z,62.90
2022-10-02T08:57:43.138Z,63.50
2022-10-02T09:00:22.548Z,62.90
2022-10-02T09:03:25.782Z,62.80
2022-10-02T09:06:18.851Z,62.70
2022-10-02T09:09:34.597Z,62.50
2022-10-02T09:12:31.963Z,62.20
2022-10-02T09:15:08.424Z,62.10
2022-10-02T09:17:46.737Z,62.30
2022-10-02T09:20:42.233Z,62.30
2022-10-02T09:23:56.804Z,62.10
2022-10-02T09:26:37.702Z,61.70
2022-10-02T09:29:50.076Z,61.60
2022-10-02T09:32:50.613Z,61.50
2022-10-02T09:35:43.716Z,61.40
2022-10-02T09:38:44.775Z,60.90
2022-10-02T09:41:38.698Z,61.00
2022-10-02T09:44:37.044Z,60.50
2022-10-02T09:47:37.459Z,60.80
2022-10-02T09:50:32.229Z,60.30
2022-10-02T09:53:32.398Z,60.40
2022-10-02T09:56:34.714Z,60.80
2022-10-02T09:59:37.595Z,60.80
2022-10-02T10:02:26.375Z,60.70
2022-10-02T10:05:08.848Z,60.70
2022-10-02T10:08:13.604Z,60.50
2022-10-02T10:11:17.331Z,60.20
2022-10-02T10:14:19.200Z,59.60
2022-10-02T10:17:31.519Z,59.60
2022-10-02T10:20:25.685Z,59.90
2022-10-02T10:23:17.731Z,59.10
2022-10-02T10:26:10.592Z,59.60
2022-10-02T10:29:16.398Z,60.00
2022-10-02T10:32:20.666Z,59.90
2022-10-02T10:35:34.402Z,59.40
2022-10-02T10:38:33.706Z,59.10
2022-10-02T10:42:05.395Z,58.80
2022-10-02T10:45:08.720Z,59.70
2022-10-02T10:48:02.200Z,59.10
2022-10-02T10:50:39.048Z,59.20
2022-10-02T10:53:32.795Z,60.00
2022-10-02T10:56:29.900Z,59.80
2022-10-02T10:59:25.271Z,59.20
2022-10-02T11:02:13.807Z,58.60
2022-10-02T11:05:07.403Z,59.80
2022-10-02T11:07:52.784Z,59.20
2022-10-02T11:10:30.953Z,59.40
2022-10-02T11:13:20.228Z,59.60
2022-10-02T11:16:14.614Z,59.50
2022-10-02T11:19:05.628Z,58.00
2022-10-02T11:22:04.024Z,58.60
2022-10-02T11:24:48.871Z,58.30
2022-10-02T11:27:48.575Z,58.70
2022-10-02T11:30:22.497Z,58.70
2022-10-02T11:33:24.249Z,58.80
2022-10-02T11:36:11.529Z,58.40
2022-10-02T11:39:08.065Z,59.40
2022-10-02T11:41:53.518Z,59.10
2022-10-02T11:44:39.725Z,59.20
2022-10-02T11:47:41.986Z,59.30
2022-10-02T11:50:49.096Z,58.60
2022-10-02T11:53:40.393Z,58.30
2022-10-02T11:56:23.526Z,59.40
2022-10-02T11:59:08.003Z,59.40
2022-10-02T12:01:45.244Z,58.20
2022-10-02T12:04:30.259Z,59.00
2022-10-02T12:07:21.721Z,58.90
2022-10-02T12:10:03.952Z,59.40
2022-10-02T12:12:45.271Z,59.20
2022-10-02T12:15:27.407Z,59.10
2022-10-02T12:18:05.626Z,59.10
2022-10-02T12:21:03.596Z,58.90
2022-10-02T12:24:01.700Z,58.60
2022-10-02T12:26:59.528Z,58.30
2022-10-02T12:29:40.917Z,58.50
2022-10-02T12:32:20.381Z,58.50
2022-10-02T12:35:01.071Z,58.60
2022-10-02T12:37:37.697Z,58.70
2022-10-02T12:40:14.896Z,58.60
2022-10-02T12:43:08.930Z,58.10
2022-10-02T12:46:01.354Z,58.30
2022-10-02T12:49:07.516Z,57.50
2022-10-02T12:51:48.224Z,57.90
2022-10-02T12:54:57.398Z,56.80
2022-10-02T12:57:55.060Z,57.70
2022-10-02T13:00:26.373Z,56.70
2022-10-02T13:03:48.263Z,57.50
2022-10-02T13:07:05.958Z,57.50
2022-10-02T13:09:45.683Z,56.70
2022-10-02T13:12:32.695Z,56.40
2022-10-02T13:15:26.835Z,55.40
2022-10-02T13:18:03.762Z,55.50
2022-10-02T13:20:39.751Z,56.70
2022-10-02T13:23:23.163Z,56.60
2022-10-02T13:26:01.997Z,57.20
2022-10-02T13:28:53.566Z,56.60
2022-10-02T13:31:36.828Z,56.40
2022-10-02T13:34:17.769Z,55.50
2022-10-02T13:37:01.501Z,55.40
2022-10-02T13:39:50.092Z,55.60
2022-10-02T13:42:29.577Z,56.80
2022-10-02T13:45:03.906Z,54.50
2022-10-02T13:47:40.811Z,55.50
2022-10-02T13:50:34.537Z,54.80
2022-10-02T13:53:29.292Z,56.40
2022-10-02T13:56:04.532Z,55.50
2022-10-02T13:58:43.921Z,56.60
2022-10-02T14:01:19.772Z,56.40
2022-10-02T14:04:07.143Z,55.70
2022-10-02T14:06:39.616Z,55.50
2022-10-02T14:09:17.500Z,56.30
2022-10-02T14:12:01.235Z,56.60
2022-10-02T14:14:44.688Z,57.00
2022-10-02T14:17:23.651Z,56.80
2022-10-02T14:20:24.015Z,56.80
2022-10-02T14:23:12.950Z,56.20
2022-10-02T14:25:49.627Z,55.70
2022-10-02T14:28:31.527Z,56.70
2022-10-02T14:31:16.543Z,56.10
2022-10-02T14:34:13.841Z,56.90
2022-10-02T14:36:52.291Z,56.10
2022-10-02T14:39:31.502Z,56.00
2022-10-02T14:42:20.076Z,56.20
2022-10-02T14:45:18.146Z,56.50
2022-10-02T14:47:59.428Z,56.00
2022-10-02T14:51:05.904Z,56.60
2022-10-02T14:54:07.964Z,56.20
2022-10-02T14:56:54.920Z,56.70
2022-10-02T14:59:43.521Z,55.70
2022-10-02T15:02:30.235Z,56.60
2022-10-02T15:05:08.614Z,56.00
2022-10-02T15:07:40.116Z,56.50
2022-10-02T15:10:17.099Z,56.70
2022-10-02T15:12:56.447Z,56.90
2022-10-02T15:15:32.925Z,56.40
2022-10-02T15:18:20.034Z,55.80
2022-10-02T15:20:59.300Z,55.40
2022-10-02T15:23:43.162Z,56.30
2022-10-02T15:26:33.470Z,55.20
2022-10-02T15:29:15.256Z,55.60
2022-10-02T15:32:05.395Z,55.50
2022-10-02T15:34:37.088Z,55.50
2022-10-02T15:37:18.232Z,55.40
2022-10-02T15:40:14.543Z,55.20
2022-10-02T15:42:50.306Z,56.00
2022-10-02T15:45:56.524Z,56.30
2022-10-02T15:48:53.974Z,55.60
2022-10-02T15:51:33.443Z,55.80
2022-10-02T15:54:17.085Z,56.00
2022-10-02T15:57:26.876Z,55.70
2022-10-02T16:00:13.475Z,54.70
2022-10-02T16:03:02.858Z,55.20
2022-10-02T16:05:53.827Z,54.60
2022-10-02T16:08:57.564Z,55.30
2022-10-02T16:12:06.041Z,55.20
2022-10-02T16:14:49.830Z,55.00
2022-10-02T16:17:40.631Z,56.00
2022-10-02T16:20:26.692Z,56.00
2022-10-02T16:23:06.418Z,55.90
2022-10-02T16:26:00.371Z,55.60
2022-10-02T16:28:43.330Z,55.80
2022-10-02T16:31:40.122Z,55.90
2022-10-02T16:34:29.808Z,55.70
2022-10-02T16:37:01.146Z,56.00
2022-10-02T16:39:43.313Z,56.50
2022-10-02T16:42:24.941Z,56.40
2022-10-02T16:45:04.894Z,56.40
2022-10-02T16:47:44.415Z,56.40
2022-10-02T16:50:20.741Z,56.30
2022-10-02T16:52:54.757Z,56.50
2022-10-02T16:55:31.759Z,56.40
2022-10-02T16:58:09.203Z,56.70
2022-10-02T17:00:50.457Z,56.50
2022-10-02T17:03:28.281Z,56.70
2022-10-02T17:06:01.149Z,56.80
2022-10-02T17:08:35.613Z,56.90
2022-10-02T17:11:09.634Z,57.00
2022-10-02T17:13:55.491Z,56.90
2022-10-02T17:16:28.650Z,57.10
2022-10-02T17:18:58.065Z,57.50
2022-10-02T17:21:30.349Z,57.60
2022-10-02T17:24:32.538Z,57.60
2022-10-02T17:27:13.319Z,57.40
2022-10-02T17:29:54.219Z,57.30
2022-10-02T17:32:39.144Z,57.40
2022-10-02T17:35:16.166Z,57.50
2022-10-02T17:38:09.653Z,57.50
2022-10-02T17:40:47.673Z,57.50
2022-10-02T17:43:23.953Z,57.70
2022-10-02T17:46:01.841Z,57.70
2022-10-02T17:48:45.487Z,57.80
2022-10-02T17:51:51.423Z,58.10
2022-10-02T17:54:56.148Z,57.90
2022-10-02T17:57:37.981Z,57.80
2022-10-02T18:00:13.089Z,57.60
2022-10-02T18:03:01.516Z,57.80
2022-10-02T18:05:38.997Z,57.80
2022-10-02T18:08:19.356Z,58.00
2022-10-02T18:11:03.954Z,58.00
2022-10-02T18:13:56.050Z,58.00
2022-10-02T18:16:38.137Z,58.00
2022-10-02T18:19:23.810Z,58.20
2022-10-02T18:22:03.983Z,58.20
2022-10-02T18:24:53.402Z,58.70
2022-10-02T18:27:47.560Z,58.70
2022-10-02T18:30:18.855Z,58.70
2022-10-02T18:33:25.131Z,58.60
2022-10-02T18:36:04.239Z,59.50
2022-10-02T18:38:46.413Z,58.40
2022-10-02T18:41:41.032Z,58.30
2022-10-02T18:44:45.115Z,58.30
2022-10-02T18:47:26.223Z,58.30
2022-10-02T18:50:09.560Z,58.30
2022-10-02T18:52:54.730Z,58.40
2022-10-02T18:55:50.802Z,58.40
2022-10-02T18:58:31.570Z,58.60
2022-10-02T19:01:13.977Z,58.80
2022-10-02T19:03:59.620Z,58.90
2022-10-02T19:06:33.167Z,58.90
2022-10-02T19:09:18.952Z,59.00
2022-10-02T19:11:48.627Z,59.10
2022-10-02T19:14:30.021Z,59.20
2022-10-02T19:17:00.989Z,59.20
2022-10-02T19:19:29.567Z,59.20
2022-10-02T19:22:01.548Z,59.30
2022-10-02T19:24:33.192Z,59.30
2022-10-02T19:27:04.676Z,59.30
2022-10-02T19:29:36.685Z,60.10
2022-10-02T19:32:14.160Z,59.30
2022-10-02T19:34:43.940Z,59.20
2022-10-02T19:37:17.176Z,59.10
2022-10-02T19:39:52.068Z,59.30
2022-10-02T19:42:25.161Z,59.20
2022-10-02T19:44:56.580Z,59.10
2022-10-02T19:47:29.527Z,59.20
2022-10-02T19:50:00.545Z,59.30
2022-10-02T19:52:33.486Z,59.20
2022-10-02T19:55:04.318Z,59.30
2022-10-02T19:57:40.001Z,59.50
2022-10-02T20:00:16.359Z,59.50
2022-10-02T20:02:48.046Z,59.70
2022-10-02T20:05:35.937Z,59.50
2022-10-02T20:08:13.949Z,60.00
2022-10-02T20:10:48.069Z,59.50
2022-10-02T20:13:21.323Z,59.60
2022-10-02T20:16:11.965Z,59.70
2022-10-02T20:18:41.487Z,59.60
2022-10-02T20:21:18.967Z,59.70
2022-10-02T20:23:52.302Z,59.60
2022-10-02T20:26:24.067Z,59.60
2022-10-02T20:28:56.062Z,59.50
2022-10-02T20:31:34.958Z,59.70
2022-10-02T20:34:10.431Z,59.70
2022-10-02T20:36:47.275Z,59.70
2022-10-02T20:39:18.839Z,59.80
2022-10-02T20:41:55.617Z,59.70
2022-10-02T20:44:23.389Z,60.00
2022-10-02T20:47:29.117Z,59.80
2022-10-02T20:50:24.804Z,59.70
2022-10-02T20:53:41.281Z,59.80
2022-10-02T20:56:32.823Z,59.90
2022-10-02T20:59:21.184Z,59.90
2022-10-02T21:02:02.189Z,59.80
2022-10-02T21:05:09.815Z,59.70
2022-10-02T21:08:05.532Z,59.70
2022-10-02T21:10:55.997Z,59.70
2022-10-02T21:13:54.569Z,59.70
2022-10-02T21:16:42.859Z,60.00
2022-10-02T21:19:36.320Z,59.70
2022-10-02T21:22:41.045Z,59.80
2022-10-02T21:25:52.673Z,59.80
2022-10-02T21:28:55.455Z,59.70
2022-10-02T21:31:50.532Z,59.70
2022-10-02T21:34:35.040Z,59.80
2022-10-02T21:37:13.940Z,59.60
2022-10-02T21:40:10.200Z,59.70
2022-10-02T21:43:20.706Z,59.70
2022-10-02T21:46:22.943Z,59.80
2022-10-02T21:49:23.843Z,59.90
2022-10-02T21:52:20.210Z,60.00
2022-10-02T21:55:11.683Z,60.30
2022-10-02T21:58:11.072Z,60.50
2022-10-02T22:00:50.038Z,60.70
2022-10-02T22:03:38.707Z,60.80
2022-10-02T22:06:25.641Z,60.70
2022-10-02T22:09:13.904Z,60.60
2022-10-02T22:11:52.239Z,60.70
2022-10-02T22:14:28.684Z,60.60
2022-10-02T22:17:05.711Z,60.60
2022-10-02T22:19:58.879Z,60.50
2022-10-02T22:22:38.265Z,60.40
2022-10-02T22:25:13.914Z,60.80
2022-10-02T22:28:01.514Z,61.10
2022-10-02T22:30:31.888Z,61.20
2022-10-02T22:33:31.713Z,61.20
2022-10-02T22:36:34.308Z,61.60
2022-10-02T22:39:07.306Z,61.70
2022-10-02T22:41:41.821Z,61.70
2022-10-02T22:44:20.719Z,61.70
2022-10-02T22:46:52.088Z,61.60
2022-10-02T22:49:27.087Z,61.80
2022-10-02T22:52:01.908Z,61.80
2022-10-02T22:54:36.537Z,61.90
2022-10-02T22:57:14.955Z,61.90
2022-10-02T22:59:49.826Z,61.90
2022-10-02T23:02:23.899Z,62.00
2022-10-02T23:04:57.109Z,62.00
2022-10-02T23:07:33.333Z,62.00
2022-10-02T23:10:05.963Z,62.00
2022-10-02T23:12:39.520Z,62.00
2022-10-02T23:15:25.874Z,62.10
2022-10-02T23:17:59.052Z,62.30
2022-10-02T23:20:31.545Z,62.30
2022-10-02T23:23:06.973Z,62.50
2022-10-02T23:25:43.664Z,62.50
2022-10-02T23:28:18.913Z,62.50
2022-10-02T23:30:53.697Z,62.40
2022-10-02T23:33:26.589Z,62.50
2022-10-02T23:36:00.027Z,62.60
2022-10-02T23:38:35.601Z,62.50
2022-10-02T23:41:26.332Z,62.60
2022-10-02T23:44:05.347Z,62.60
2022-10-02T23:46:38.532Z,62.70
2022-10-02T23:49:10.200Z,62.80
2022-10-02T23:51:48.021Z,62.80
2022-10-02T23:54:39.483Z,63.00
2022-10-02T23:57:33.400Z,62.90
